Parks Crossroads, North Carolina
Current Conditions -  °F | °C
As of 6:15 PM on Friday 19 Dec 2014 (Local Time) from K5W8 Reporting Station
Clear Clear  
Wind Chill: 41°   Ceiling: Unl
Heat Index: 41°   Visibility: 10mi
Dew Point: 32°   Wind: 0mph
Humidity: 69%   Direction: NA
Pressure: 30.15"   Gusts: NA
Location:  35.6832°N, 79.6174°W
Report Text: K5W8 192315Z AUTO 00000KT 10SM CLR 05/00 A3015 RMK AO2 T00511001
Loading
Personal Weather Stations






























Interactive Weather Map New forecast layout! Learn more

10-Day Weather Forecast

Advertisements
Track Severe Weather on mobile